Terminal Aerodrome Forecast
Issued by NWS Buffalo, NY

Home | Current Version | Previous Version | Text Only | Print | Product List | Glossary On
Versions: 1 2 3 4 5 6 7 8 9 10 11 12 13 14 15 16 17 18 19 20 21 22 23 24 25 26 27 28 29
000
FTUS41 KBUF 300541
TAFBUF
TAF
KBUF 300541Z 3006/3106 15004KT P6SM VCSH OVC060
      TEMPO 3006/3010 P6SM -SHRA
     FM301700 23004KT P6SM BKN050
     FM301900 24010KT P6SM BKN060
     FM302100 23010KT P6SM SCT060
     FM310200 21006KT P6SM SCT060=

USA.gov is the U.S. government's official web portal to all federal, state and local government web resources and services.